createdAt,value
2019-01-22T00:01:56.603Z,95080.04
2019-01-22T00:04:22.929Z,95079.58
2019-01-22T00:06:49.267Z,95082.15
2019-01-22T00:09:15.597Z,95080.98
2019-01-22T00:11:41.926Z,95083.20
2019-01-22T00:14:08.311Z,95084.00
2019-01-22T00:16:34.667Z,95079.09
2019-01-22T00:19:01.042Z,95077.13
2019-01-22T00:21:27.382Z,95074.78
2019-01-22T00:23:53.760Z,95072.20
2019-01-22T00:26:20.091Z,95076.16
2019-01-22T00:28:46.468Z,95080.14
2019-01-22T00:31:12.829Z,95074.05
2019-01-22T00:33:39.190Z,95077.76
2019-01-22T00:36:05.519Z,95080.70
2019-01-22T00:38:31.902Z,95071.70
2019-01-22T00:40:58.276Z,95076.47
2019-01-22T00:43:24.609Z,95076.38
2019-01-22T00:45:50.983Z,95079.05
2019-01-22T00:48:17.325Z,95080.45
2019-01-22T00:50:43.649Z,95084.06
2019-01-22T00:53:10.349Z,95086.97
2019-01-22T00:55:36.373Z,95077.27
2019-01-22T00:58:02.744Z,95073.33
2019-01-22T01:00:29.070Z,95069.69
2019-01-22T01:02:55.482Z,95068.28
2019-01-22T01:05:21.819Z,95071.31
2019-01-22T01:07:48.164Z,95064.73
2019-01-22T01:10:14.547Z,95071.04
2019-01-22T01:12:41.011Z,95063.70
2019-01-22T01:15:07.373Z,95063.94
2019-01-22T01:17:33.700Z,95064.34
2019-01-22T01:20:00.142Z,95056.69
2019-01-22T01:22:26.424Z,95056.09
2019-01-22T01:24:52.764Z,95051.55
2019-01-22T01:27:19.155Z,95049.68
2019-01-22T01:29:45.512Z,95047.95
2019-01-22T01:32:11.841Z,95044.55
2019-01-22T01:34:38.187Z,95041.78
2019-01-22T01:37:04.517Z,95042.94
2019-01-22T01:39:30.851Z,95037.71
2019-01-22T01:41:57.174Z,95041.57
2019-01-22T01:44:23.535Z,95034.68
2019-01-22T01:46:49.876Z,95035.50
2019-01-22T01:49:16.268Z,95031.52
2019-01-22T01:51:42.596Z,95029.08
2019-01-22T01:54:08.930Z,95030.83
2019-01-22T01:56:35.290Z,95030.27
2019-01-22T01:59:01.660Z,95024.77
2019-01-22T02:01:27.991Z,95017.18
2019-01-22T02:03:54.437Z,95016.72
2019-01-22T02:06:20.773Z,95007.13
2019-01-22T02:08:47.123Z,95000.09
2019-01-22T02:11:13.637Z,95000.45
2019-01-22T02:13:39.965Z,94997.29
2019-01-22T02:16:06.291Z,94997.29
2019-01-22T02:18:32.626Z,94994.72
2019-01-22T02:20:59.011Z,94984.19
2019-01-22T02:23:30.643Z,94984.69
2019-01-22T02:25:51.684Z,94977.06
2019-01-22T02:28:18.014Z,94973.90
2019-01-22T02:30:44.398Z,94975.09
2019-01-22T02:33:10.729Z,94973.67
2019-01-22T02:35:37.015Z,94972.64
2019-01-22T02:38:03.496Z,94972.51
2019-01-22T02:40:29.868Z,94977.19
2019-01-22T02:42:56.155Z,94974.26
2019-01-22T02:45:22.478Z,94968.41
2019-01-22T02:47:48.878Z,94964.22
2019-01-22T02:50:15.232Z,94966.10
2019-01-22T02:52:41.559Z,94959.53
2019-01-22T02:55:07.938Z,94957.78
2019-01-22T02:57:34.236Z,94962.36
2019-01-22T03:00:00.575Z,94946.91
2019-01-22T03:02:26.913Z,94961.17
2019-01-22T03:04:53.254Z,94953.25
2019-01-22T03:07:20.816Z,94948.20
2019-01-22T03:09:45.984Z,94956.98
2019-01-22T03:12:12.305Z,94953.45
2019-01-22T03:14:38.646Z,94951.83
2019-01-22T03:17:05.019Z,94945.40
2019-01-22T03:19:31.351Z,94946.35
2019-01-22T03:21:57.705Z,94945.53
2019-01-22T03:24:24.055Z,94946.58
2019-01-22T03:26:50.409Z,94939.32
2019-01-22T03:29:16.746Z,94931.70
2019-01-22T03:31:43.117Z,94925.98
2019-01-22T03:34:09.463Z,94926.81
2019-01-22T03:36:38.312Z,94927.50
2019-01-22T03:39:04.695Z,94930.54
2019-01-22T03:41:31.013Z,94923.54
2019-01-22T03:43:57.400Z,94927.86
2019-01-22T03:46:23.731Z,94930.08
2019-01-22T03:48:50.144Z,94927.04
2019-01-22T03:51:16.470Z,94926.34
2019-01-22T03:53:42.827Z,94919.54
2019-01-22T03:56:09.165Z,94924.22
2019-01-22T03:58:35.570Z,94922.70
2019-01-22T04:01:01.895Z,94920.95
2019-01-22T04:03:28.248Z,94916.16
2019-01-22T04:05:54.581Z,94914.95
2019-01-22T04:08:20.912Z,94917.19
2019-01-22T04:10:47.247Z,94924.57
2019-01-22T04:13:13.637Z,94926.30
2019-01-22T04:15:39.992Z,94926.53
2019-01-22T04:18:06.334Z,94923.84
2019-01-22T04:20:32.689Z,94919.02
2019-01-22T04:22:59.024Z,94924.17
2019-01-22T04:25:25.392Z,94917.66
2019-01-22T04:27:51.738Z,94924.31
2019-01-22T04:30:18.064Z,94921.27
2019-01-22T04:32:44.411Z,94922.55
2019-01-22T04:35:10.783Z,94927.09
2019-01-22T04:37:37.114Z,94924.52
2019-01-22T04:40:03.458Z,94938.11
2019-01-22T04:42:29.780Z,94935.40
2019-01-22T04:44:56.162Z,94937.73
2019-01-22T04:47:22.489Z,94939.73
2019-01-22T04:49:48.844Z,94942.53
2019-01-22T04:52:15.178Z,94939.03
2019-01-22T04:54:41.511Z,94933.17
2019-01-22T04:57:07.856Z,94930.02
2019-01-22T04:59:35.821Z,94939.61
2019-01-22T05:02:02.151Z,94940.77
2019-01-22T05:04:28.484Z,94944.28
2019-01-22T05:06:54.823Z,94944.03
2019-01-22T05:09:21.199Z,94940.99
2019-01-22T05:11:47.533Z,94940.87
2019-01-22T05:14:13.875Z,94939.91
2019-01-22T05:16:40.220Z,94935.02
2019-01-22T05:19:06.567Z,94939.45
2019-01-22T05:21:32.902Z,94937.13
2019-01-22T05:23:59.278Z,94929.94
2019-01-22T05:26:25.604Z,94934.41
2019-01-22T05:28:51.939Z,94938.17
2019-01-22T05:31:18.282Z,94940.97
2019-01-22T05:33:44.622Z,94946.73
2019-01-22T05:36:10.962Z,94943.44
2019-01-22T05:38:37.326Z,94940.04
2019-01-22T05:41:03.785Z,94939.08
2019-01-22T05:43:30.127Z,94933.92
2019-01-22T05:45:56.495Z,94923.06
2019-01-22T05:48:22.825Z,94921.36
2019-01-22T05:50:49.207Z,94928.62
2019-01-22T05:53:15.548Z,94919.14
2019-01-22T05:55:41.922Z,94923.30
2019-01-22T05:58:08.418Z,94926.95
2019-01-22T06:00:34.763Z,94927.67
2019-01-22T06:03:01.111Z,94931.86
2019-01-22T06:05:27.479Z,94931.45
2019-01-22T06:07:53.838Z,94932.97
2019-01-22T06:10:20.240Z,94933.64
2019-01-22T06:12:46.692Z,94927.31
2019-01-22T06:15:13.139Z,94922.33
2019-01-22T06:17:39.487Z,94917.42
2019-01-22T06:20:05.839Z,94913.41
2019-01-22T06:22:32.223Z,94905.94
2019-01-22T06:24:58.567Z,94913.70
2019-01-22T06:27:24.897Z,94907.44
2019-01-22T06:29:51.233Z,94904.61
2019-01-22T06:32:17.562Z,94904.09
2019-01-22T06:34:43.909Z,94905.08
2019-01-22T06:37:10.306Z,94902.99
2019-01-22T06:39:36.664Z,94903.52
2019-01-22T06:42:03.079Z,94899.70
2019-01-22T06:44:29.418Z,94901.81
2019-01-22T06:46:55.787Z,94903.38
2019-01-22T06:49:22.080Z,94897.90
2019-01-22T06:51:48.508Z,94900.08
2019-01-22T06:54:14.847Z,94898.42
2019-01-22T06:56:41.347Z,94898.68
2019-01-22T06:59:07.672Z,94895.17
2019-01-22T07:01:34.085Z,94897.87
2019-01-22T07:04:00.451Z,94906.42
2019-01-22T07:06:26.964Z,94900.28
2019-01-22T07:08:53.296Z,94896.77
2019-01-22T07:11:19.710Z,94896.00
2019-01-22T07:13:46.081Z,94890.62
2019-01-22T07:16:12.479Z,94888.15
2019-01-22T07:18:38.828Z,94884.47
2019-01-22T07:21:05.172Z,94885.25
2019-01-22T07:23:31.510Z,94885.97
2019-01-22T07:25:57.834Z,94884.41
2019-01-22T07:28:24.389Z,94892.89
2019-01-22T07:30:50.738Z,94888.25
2019-01-22T07:33:17.069Z,94887.41
2019-01-22T07:35:43.434Z,94882.39
2019-01-22T07:38:09.785Z,94890.17
2019-01-22T07:40:36.148Z,94890.27
2019-01-22T07:43:02.483Z,94888.08
2019-01-22T07:45:28.895Z,94888.95
2019-01-22T07:47:55.238Z,94894.05
2019-01-22T07:50:22.164Z,94884.72
2019-01-22T07:52:48.503Z,94884.42
2019-01-22T07:55:14.857Z,94881.02
2019-01-22T07:57:42.269Z,94884.46
2019-01-22T08:00:08.636Z,94875.72
2019-01-22T08:02:35.012Z,94870.98
2019-01-22T08:05:01.434Z,94874.48
2019-01-22T08:07:27.804Z,94877.30
2019-01-22T08:09:54.162Z,94876.77
2019-01-22T08:12:20.501Z,94875.98
2019-01-22T08:14:47.001Z,94879.30
2019-01-22T08:17:13.353Z,94883.99
2019-01-22T08:19:39.693Z,94873.92
2019-01-22T08:22:06.026Z,94869.55
2019-01-22T08:24:32.434Z,94871.28
2019-01-22T08:26:58.886Z,94870.45
2019-01-22T08:29:25.219Z,94872.02
2019-01-22T08:31:51.608Z,94862.39
2019-01-22T08:34:17.985Z,94857.75
2019-01-22T08:36:44.331Z,94856.45
2019-01-22T08:39:10.686Z,94855.52
2019-01-22T08:41:37.548Z,94854.84
2019-01-22T08:44:03.878Z,94851.70
2019-01-22T08:46:30.227Z,94854.89
2019-01-22T08:48:58.760Z,94858.98
2019-01-22T08:51:25.155Z,94864.77
2019-01-22T08:56:35.646Z,94867.24
2019-01-22T08:59:02.024Z,94859.77
2019-01-22T09:01:28.463Z,94866.98
2019-01-22T09:03:54.925Z,94862.20
2019-01-22T09:06:21.323Z,94862.63
2019-01-22T09:08:47.688Z,94868.95
2019-01-22T09:11:14.150Z,94856.17
2019-01-22T09:13:40.557Z,94837.19
2019-01-22T09:16:06.902Z,94846.31
2019-01-22T09:18:33.255Z,94845.14
2019-01-22T09:20:59.599Z,94845.77
2019-01-22T09:23:26.013Z,94839.78
2019-01-22T09:25:55.625Z,94842.08
2019-01-22T09:28:21.958Z,94844.27
2019-01-22T09:30:48.314Z,94835.22
2019-01-22T09:33:15.613Z,94822.30
2019-01-22T09:35:42.001Z,94822.77
2019-01-22T09:38:08.453Z,94816.11
2019-01-22T09:40:34.804Z,94815.77
2019-01-22T09:43:01.155Z,94808.09
2019-01-22T09:45:27.545Z,94804.61
2019-01-22T09:47:54.001Z,94806.25
2019-01-22T09:50:20.352Z,94797.88
2019-01-22T09:52:46.737Z,94797.74
2019-01-22T09:55:13.144Z,94796.27
2019-01-22T09:57:39.520Z,94792.31
2019-01-22T10:00:05.859Z,94780.75
2019-01-22T10:02:33.206Z,94777.86
2019-01-22T10:04:59.558Z,94776.57
2019-01-22T10:07:25.931Z,94766.28
2019-01-22T10:09:52.264Z,94764.36
2019-01-22T10:12:18.649Z,94765.65
2019-01-22T10:14:44.978Z,94761.55
2019-01-22T10:17:12.592Z,94747.73
2019-01-22T10:19:37.840Z,94748.95
2019-01-22T10:22:04.221Z,94747.92
2019-01-22T10:24:30.587Z,94742.09
2019-01-22T10:26:56.932Z,94736.10
2019-01-22T10:29:23.287Z,94734.18
2019-01-22T10:31:50.521Z,94732.38
2019-01-22T10:34:16.162Z,94725.42
2019-01-22T10:36:42.487Z,94728.73
2019-01-22T10:39:08.822Z,94721.16
2019-01-22T10:41:35.189Z,94720.60
2019-01-22T10:44:01.623Z,94721.27
2019-01-22T10:46:27.937Z,94719.52
2019-01-22T10:48:54.264Z,94719.32
2019-01-22T10:51:20.642Z,94716.66
2019-01-22T10:53:47.082Z,94721.77
2019-01-22T10:56:13.471Z,94719.19
2019-01-22T10:58:39.844Z,94716.92
2019-01-22T11:01:06.379Z,94709.61
2019-01-22T11:03:32.771Z,94704.10
2019-01-22T11:05:59.239Z,94706.80
2019-01-22T11:08:25.605Z,94702.33
2019-01-22T11:10:52.112Z,94697.09
2019-01-22T11:13:18.326Z,94691.66
2019-01-22T11:15:44.755Z,94689.70
2019-01-22T11:18:11.282Z,94693.49
2019-01-22T11:20:37.624Z,94690.80
2019-01-22T11:23:04.030Z,94688.25
2019-01-22T11:25:30.366Z,94682.81
2019-01-22T11:27:56.728Z,94680.46
2019-01-22T11:30:23.074Z,94672.48
2019-01-22T11:32:49.488Z,94664.70
2019-01-22T11:35:15.825Z,94657.08
2019-01-22T11:37:42.218Z,94651.17
2019-01-22T11:40:08.738Z,94644.33
2019-01-22T11:42:35.104Z,94644.45
2019-01-22T11:45:01.442Z,94637.80
2019-01-22T11:47:27.796Z,94644.52
2019-01-22T11:49:54.199Z,94639.82
2019-01-22T11:52:20.549Z,94633.36
2019-01-22T11:54:46.922Z,94631.27
2019-01-22T11:57:13.272Z,94625.97
2019-01-22T11:59:39.637Z,94623.78
2019-01-22T12:02:05.964Z,94624.13
2019-01-22T12:04:32.361Z,94612.36
2019-01-22T12:06:58.715Z,94607.67
2019-01-22T12:09:25.124Z,94605.59
2019-01-22T12:11:51.479Z,94600.70
2019-01-22T12:14:17.880Z,94597.91
2019-01-22T12:16:44.241Z,94598.13
2019-01-22T12:19:10.600Z,94597.16
2019-01-22T12:21:37.010Z,94589.41
2019-01-22T12:24:03.363Z,94591.52
2019-01-22T12:26:29.724Z,94582.69
2019-01-22T12:28:56.080Z,94589.96
2019-01-22T12:31:22.505Z,94582.42
2019-01-22T12:33:48.872Z,94576.24
2019-01-22T12:36:15.313Z,94583.59
2019-01-22T12:38:41.733Z,94586.38
2019-01-22T12:41:08.151Z,94573.58
2019-01-22T12:43:34.462Z,94568.77
2019-01-22T12:46:00.832Z,94567.28
2019-01-22T12:48:27.346Z,94571.42
2019-01-22T12:50:53.669Z,94565.45
2019-01-22T12:53:20.007Z,94558.37
2019-01-22T12:55:46.397Z,94558.05
2019-01-22T12:58:12.897Z,94547.85
2019-01-22T13:00:39.325Z,94543.23
2019-01-22T13:03:05.695Z,94539.84
2019-01-22T13:05:32.030Z,94540.80
2019-01-22T13:07:58.384Z,94543.52
2019-01-22T13:10:24.772Z,94545.54
2019-01-22T13:12:51.194Z,94540.84
2019-01-22T13:15:17.521Z,94534.36
2019-01-22T13:17:43.899Z,94524.97
2019-01-22T13:20:10.370Z,94531.51
2019-01-22T13:22:36.711Z,94527.36
2019-01-22T13:25:03.060Z,94518.17
2019-01-22T13:27:29.469Z,94526.88
2019-01-22T13:30:01.299Z,94531.77
2019-01-22T13:32:22.187Z,94527.91
2019-01-22T13:34:48.787Z,94522.86
2019-01-22T13:37:15.231Z,94519.94
2019-01-22T13:39:41.613Z,94518.37
2019-01-22T13:42:10.340Z,94517.25
2019-01-22T13:44:36.774Z,94510.33
2019-01-22T13:47:03.604Z,94499.38
2019-01-22T13:49:32.499Z,94492.73
2019-01-22T13:52:13.013Z,94498.43
2019-01-22T13:54:41.648Z,94490.69
2019-01-22T13:57:10.126Z,94480.09
2019-01-22T13:59:37.580Z,94480.92
2019-01-22T14:02:06.375Z,94479.73
2019-01-22T14:04:32.754Z,94475.63
2019-01-22T14:06:59.134Z,94473.66
2019-01-22T14:09:25.962Z,94476.25
2019-01-22T14:11:52.388Z,94464.34
2019-01-22T14:14:19.338Z,94455.72
2019-01-22T14:16:45.963Z,94460.75
2019-01-22T14:19:13.096Z,94466.66
2019-01-22T14:21:39.512Z,94466.45
2019-01-22T14:24:05.884Z,94452.03
2019-01-22T14:26:32.340Z,94441.91
2019-01-22T14:28:58.870Z,94442.25
2019-01-22T14:31:25.361Z,94442.50
2019-01-22T14:33:51.759Z,94443.16
2019-01-22T14:36:18.162Z,94443.09
2019-01-22T14:38:44.468Z,94428.15
2019-01-22T14:41:10.843Z,94432.56
2019-01-22T14:43:37.292Z,94436.15
2019-01-22T14:46:03.614Z,94433.66
2019-01-22T14:48:29.958Z,94422.73
2019-01-22T14:50:56.315Z,94435.16
2019-01-22T14:53:22.649Z,94429.98
2019-01-22T14:55:49.040Z,94434.04
2019-01-22T14:58:15.429Z,94432.67
2019-01-22T15:00:41.779Z,94425.19
2019-01-22T15:03:08.191Z,94422.80
2019-01-22T15:05:34.642Z,94421.51
2019-01-22T15:08:01.056Z,94419.81
2019-01-22T15:10:27.431Z,94406.50
2019-01-22T15:12:53.773Z,94411.94
2019-01-22T15:15:20.129Z,94406.97
2019-01-22T15:17:46.809Z,94407.20
2019-01-22T15:20:13.527Z,94402.57
2019-01-22T15:22:40.586Z,94405.30
2019-01-22T15:25:06.982Z,94403.47
2019-01-22T15:27:33.785Z,94398.65
2019-01-22T15:30:00.451Z,94408.81
2019-01-22T15:32:27.072Z,94404.05
2019-01-22T15:34:53.803Z,94396.55
2019-01-22T15:37:20.463Z,94395.84
2019-01-22T15:39:47.097Z,94398.98
2019-01-22T15:42:13.673Z,94401.01
2019-01-22T15:44:40.278Z,94390.86
2019-01-22T15:47:07.076Z,94375.52
2019-01-22T15:49:33.855Z,94364.25
2019-01-22T15:52:00.557Z,94358.21
2019-01-22T15:54:27.392Z,94357.94
2019-01-22T15:56:54.067Z,94355.59
2019-01-22T15:59:20.934Z,94365.12
2019-01-22T16:01:47.497Z,94357.48
2019-01-22T16:04:13.938Z,94351.66
2019-01-22T16:06:40.286Z,94327.98
2019-01-22T16:09:06.667Z,94326.48
2019-01-22T16:11:33.043Z,94333.27
2019-01-22T16:13:59.387Z,94334.30
2019-01-22T16:16:25.716Z,94344.31
2019-01-22T16:18:53.526Z,94348.75
2019-01-22T16:21:18.427Z,94349.84
2019-01-22T16:23:44.836Z,94345.63
2019-01-22T16:26:11.223Z,94337.81
2019-01-22T16:28:37.525Z,94339.19
2019-01-22T16:31:03.932Z,94336.55
2019-01-22T16:33:30.306Z,94329.44
2019-01-22T16:35:56.637Z,94322.09
2019-01-22T16:38:23.024Z,94313.03
2019-01-22T16:40:49.537Z,94319.47
2019-01-22T16:43:15.860Z,94328.14
2019-01-22T16:45:42.238Z,94325.45
2019-01-22T16:48:08.624Z,94325.84
2019-01-22T16:50:35.051Z,94321.38
2019-01-22T16:53:01.817Z,94314.19
2019-01-22T16:55:27.784Z,94304.97
2019-01-22T16:57:54.113Z,94313.59
2019-01-22T17:00:20.501Z,94318.45
2019-01-22T17:02:47.036Z,94302.30
2019-01-22T17:05:13.320Z,94299.17
2019-01-22T17:07:39.687Z,94294.76
2019-01-22T17:10:06.013Z,94295.94
2019-01-22T17:12:32.373Z,94308.19
2019-01-22T17:14:58.704Z,94307.66
2019-01-22T17:17:25.149Z,94306.52
2019-01-22T17:19:51.534Z,94298.78
2019-01-22T17:22:17.869Z,94294.73
2019-01-22T17:24:44.219Z,94286.30
2019-01-22T17:27:10.550Z,94289.34
2019-01-22T17:29:36.901Z,94287.55
2019-01-22T17:32:04.601Z,94280.48
2019-01-22T17:34:29.805Z,94282.80
2019-01-22T17:36:56.133Z,94283.88
2019-01-22T17:39:22.589Z,94280.34
2019-01-22T17:41:48.884Z,94276.63
2019-01-22T17:44:15.213Z,94286.11
2019-01-22T17:46:41.577Z,94276.20
2019-01-22T17:49:07.942Z,94265.52
2019-01-22T17:51:34.289Z,94259.73
2019-01-22T17:54:00.673Z,94264.89
2019-01-22T17:56:30.866Z,94265.39
2019-01-22T17:58:53.333Z,94258.45
2019-01-22T18:01:19.675Z,94253.73
2019-01-22T18:03:46.019Z,94252.02
2019-01-22T18:06:12.427Z,94253.37
2019-01-22T18:08:38.791Z,94257.78
2019-01-22T18:11:05.152Z,94263.48
2019-01-22T18:13:31.533Z,94262.81
2019-01-22T18:15:57.834Z,94263.02
2019-01-22T18:18:24.221Z,94257.12
2019-01-22T18:20:50.576Z,94251.81
2019-01-22T18:23:16.928Z,94255.29
2019-01-22T18:25:43.250Z,94254.81
2019-01-22T18:28:09.585Z,94251.47
2019-01-22T18:30:35.991Z,94242.34
2019-01-22T18:33:02.374Z,94246.94
2019-01-22T18:35:28.674Z,94246.05
2019-01-22T18:37:55.065Z,94234.22
2019-01-22T18:40:21.416Z,94232.11
2019-01-22T18:42:47.872Z,94229.55
2019-01-22T18:45:14.304Z,94223.85
2019-01-22T18:47:40.668Z,94226.84
2019-01-22T18:50:07.007Z,94223.72
2019-01-22T18:52:33.336Z,94200.64
2019-01-22T18:54:59.668Z,94199.82
2019-01-22T18:57:27.627Z,94192.23
2019-01-22T18:59:52.343Z,94190.34
2019-01-22T19:02:18.682Z,94187.23
2019-01-22T19:04:45.006Z,94184.58
2019-01-22T19:07:11.346Z,94185.98
2019-01-22T19:09:37.667Z,94187.06
2019-01-22T19:12:04.005Z,94192.16
2019-01-22T19:14:30.374Z,94179.15
2019-01-22T19:16:56.746Z,94175.76
2019-01-22T19:19:23.099Z,94181.72
2019-01-22T19:21:49.430Z,94192.20
2019-01-22T19:24:15.761Z,94184.02
2019-01-22T19:26:42.091Z,94177.38
2019-01-22T19:29:08.413Z,94170.05
2019-01-22T19:31:34.746Z,94180.02
2019-01-22T19:34:01.155Z,94168.22
2019-01-22T19:36:27.488Z,94174.18
2019-01-22T19:38:53.851Z,94169.59
2019-01-22T19:41:20.189Z,94171.75
2019-01-22T19:43:46.688Z,94187.66
2019-01-22T19:46:12.940Z,94178.92
2019-01-22T19:48:39.310Z,94173.58
2019-01-22T19:51:05.649Z,94163.49
2019-01-22T19:53:31.971Z,94173.89
2019-01-22T19:55:58.404Z,94155.29
2019-01-22T19:58:24.743Z,94144.78
2019-01-22T20:00:51.078Z,94152.17
2019-01-22T20:03:17.406Z,94142.00
2019-01-22T20:05:43.762Z,94137.48
2019-01-22T20:08:10.112Z,94136.66
2019-01-22T20:10:36.485Z,94133.07
2019-01-22T20:13:02.894Z,94127.11
2019-01-22T20:15:29.190Z,94131.78
2019-01-22T20:17:55.514Z,94132.25
2019-01-22T20:20:21.876Z,94120.72
2019-01-22T20:22:48.186Z,94127.27
2019-01-22T20:25:14.572Z,94120.75
2019-01-22T20:27:40.897Z,94131.38
2019-01-22T20:30:07.225Z,94116.11
2019-01-22T20:32:33.556Z,94110.73
2019-01-22T20:34:59.918Z,94101.89
2019-01-22T20:37:26.249Z,94102.63
2019-01-22T20:39:52.581Z,94093.48
2019-01-22T20:42:18.930Z,94096.00
2019-01-22T20:44:45.258Z,94092.97
2019-01-22T20:47:11.586Z,94091.18
2019-01-22T20:49:37.925Z,94089.78
2019-01-22T20:52:04.307Z,94089.95
2019-01-22T20:54:30.636Z,94091.71
2019-01-22T20:56:57.003Z,94091.71
2019-01-22T20:59:23.341Z,94083.13
2019-01-22T21:01:49.731Z,94071.89
2019-01-22T21:04:16.052Z,94070.87
2019-01-22T21:06:42.408Z,94074.61
2019-01-22T21:09:08.741Z,94084.53
2019-01-22T21:11:35.071Z,94083.16
2019-01-22T21:14:01.403Z,94076.89
2019-01-22T21:16:27.740Z,94071.28
2019-01-22T21:18:54.080Z,94082.11
2019-01-22T21:21:20.410Z,94083.69
2019-01-22T21:23:46.929Z,94086.70
2019-01-22T21:26:13.257Z,94081.35
2019-01-22T21:28:39.589Z,94080.53
2019-01-22T21:31:05.981Z,94070.78
2019-01-22T21:33:32.317Z,94063.08
2019-01-22T21:35:58.698Z,94062.38
2019-01-22T21:38:25.061Z,94055.14
2019-01-22T21:40:51.454Z,94060.75
2019-01-22T21:43:17.864Z,94061.92
2019-01-22T21:45:44.186Z,94050.70
2019-01-22T21:48:10.513Z,94038.52
2019-01-22T21:50:36.911Z,94030.34
2019-01-22T21:53:03.217Z,94037.11
2019-01-22T21:55:29.541Z,94027.10
2019-01-22T21:57:55.881Z,94028.97
2019-01-22T22:00:22.236Z,94024.77
2019-01-22T22:02:48.583Z,94027.34
2019-01-22T22:05:14.911Z,94027.34
2019-01-22T22:07:41.291Z,94028.97
2019-01-22T22:10:07.653Z,94024.25
2019-01-22T22:12:33.990Z,94016.19
2019-01-22T22:15:00.316Z,94016.75
2019-01-22T22:17:26.653Z,94009.98
2019-01-22T22:19:53.017Z,94002.94
2019-01-22T22:22:19.367Z,93989.81
2019-01-22T22:24:45.702Z,93983.55
2019-01-22T22:27:12.045Z,93987.86
2019-01-22T22:29:38.385Z,93994.16
2019-01-22T22:32:04.705Z,93989.09
2019-01-22T22:34:31.035Z,93970.04
2019-01-22T22:36:57.365Z,93966.59
2019-01-22T22:39:23.773Z,93974.41
2019-01-22T22:41:50.129Z,93975.96
2019-01-22T22:44:16.459Z,93960.03
2019-01-22T22:46:42.787Z,93950.55
2019-01-22T22:49:09.120Z,93944.28
2019-01-22T22:51:35.662Z,93955.69
2019-01-22T22:54:01.953Z,93963.63
2019-01-22T22:56:28.320Z,93964.36
2019-01-22T22:58:54.663Z,93954.09
2019-01-22T23:01:21.006Z,93954.20
2019-01-22T23:03:47.326Z,93942.56
2019-01-22T23:06:13.665Z,93937.66
2019-01-22T23:08:39.994Z,93927.98
2019-01-22T23:11:06.344Z,93919.96
2019-01-22T23:13:32.716Z,93912.58
2019-01-22T23:15:59.152Z,93914.91
2019-01-22T23:18:25.548Z,93917.13
2019-01-22T23:20:51.868Z,93915.65
2019-01-22T23:23:18.201Z,93907.48
2019-01-22T23:25:44.570Z,93901.27
2019-01-22T23:28:10.919Z,93893.22
2019-01-22T23:30:37.283Z,93887.41
2019-01-22T23:33:03.632Z,93889.63
2019-01-22T23:35:29.986Z,93873.09
2019-01-22T23:37:56.306Z,93865.13
2019-01-22T23:40:22.641Z,93866.22
2019-01-22T23:42:48.960Z,93880.91
2019-01-22T23:45:15.306Z,93872.28
2019-01-22T23:47:41.631Z,93860.61
2019-01-22T23:50:07.961Z,93854.47
2019-01-22T23:52:34.318Z,93856.48
2019-01-22T23:55:00.647Z,93847.08
2019-01-22T23:57:26.980Z,93856.48
2019-01-22T23:59:53.316Z,93860.80
